createdAt,value
2019-05-29T00:00:35.624Z,9.62
2019-05-29T00:01:35.544Z,9.57
2019-05-29T00:02:35.497Z,9.57
2019-05-29T00:03:35.447Z,9.67
2019-05-29T00:04:35.414Z,9.64
2019-05-29T00:05:35.340Z,9.54
2019-05-29T00:06:35.292Z,9.55
2019-05-29T00:07:35.232Z,9.59
2019-05-29T00:08:35.182Z,9.51
2019-05-29T00:09:35.151Z,9.58
2019-05-29T00:10:35.071Z,9.54
2019-05-29T00:11:35.023Z,9.59
2019-05-29T00:12:34.963Z,9.59
2019-05-29T00:13:34.917Z,9.54
2019-05-29T00:14:34.886Z,9.57
2019-05-29T00:15:34.814Z,9.55
2019-05-29T00:16:34.754Z,9.54
2019-05-29T00:17:34.726Z,9.52
2019-05-29T00:18:34.659Z,9.47
2019-05-29T00:19:34.635Z,9.43
2019-05-29T00:20:34.557Z,9.43
2019-05-29T00:21:34.493Z,9.43
2019-05-29T00:22:34.441Z,9.44
2019-05-29T00:23:34.405Z,9.43
2019-05-29T00:24:34.361Z,9.46
2019-05-29T00:25:34.288Z,9.42
2019-05-29T00:26:34.231Z,9.43
2019-05-29T00:27:34.177Z,9.43
2019-05-29T00:28:34.128Z,9.49
2019-05-29T00:29:34.093Z,9.39
2019-05-29T00:30:34.015Z,9.39
2019-05-29T00:31:33.981Z,9.34
2019-05-29T00:32:33.910Z,9.32
2019-05-29T00:33:33.852Z,9.32
2019-05-29T00:34:33.830Z,9.25
2019-05-29T00:35:33.747Z,9.28
2019-05-29T00:36:33.697Z,9.34
2019-05-29T00:37:33.640Z,9.29
2019-05-29T00:38:33.591Z,9.33
2019-05-29T00:39:33.566Z,9.24
2019-05-29T00:40:33.489Z,9.34
2019-05-29T00:41:33.426Z,9.25
2019-05-29T00:42:33.387Z,9.21
2019-05-29T00:43:33.319Z,9.16
2019-05-29T00:44:34.574Z,9.18
2019-05-29T00:45:33.217Z,9.11
2019-05-29T00:46:33.159Z,9.21
2019-05-29T00:47:33.113Z,9.24
2019-05-29T00:48:33.057Z,9.11
2019-05-29T00:49:33.026Z,9.08
2019-05-29T00:50:33.009Z,9.18
2019-05-29T00:51:32.899Z,9.08
2019-05-29T00:52:32.845Z,9.21
2019-05-29T00:53:32.790Z,9.14
2019-05-29T00:54:32.762Z,9.14
2019-05-29T00:55:32.682Z,9.11
2019-05-29T00:56:32.636Z,9.03
2019-05-29T00:57:32.567Z,9.03
2019-05-29T00:58:32.516Z,9.08
2019-05-29T00:59:32.493Z,9.10
2019-05-29T01:00:32.414Z,9.15
2019-05-29T01:01:32.359Z,9.10
2019-05-29T01:02:32.309Z,9.16
2019-05-29T01:03:32.254Z,9.15
2019-05-29T01:04:32.224Z,9.16
2019-05-29T01:05:32.155Z,9.10
2019-05-29T01:06:32.093Z,9.11
2019-05-29T01:07:32.053Z,9.02
2019-05-29T01:08:31.986Z,9.14
2019-05-29T01:09:31.954Z,8.96
2019-05-29T01:10:31.897Z,9.03
2019-05-29T01:11:31.825Z,9.03
2019-05-29T01:12:31.773Z,9.08
2019-05-29T01:13:31.722Z,9.03
2019-05-29T01:14:31.694Z,9.02
2019-05-29T01:15:31.614Z,9.03
2019-05-29T01:16:31.568Z,8.98
2019-05-29T01:17:31.514Z,8.96
2019-05-29T01:18:31.456Z,8.93
2019-05-29T01:19:31.471Z,8.98
2019-05-29T01:20:31.352Z,8.95
2019-05-29T01:21:31.293Z,8.91
2019-05-29T01:22:31.242Z,8.84
2019-05-29T01:23:31.184Z,8.98
2019-05-29T01:24:31.164Z,8.93
2019-05-29T01:25:31.082Z,8.88
2019-05-29T01:26:31.023Z,8.95
2019-05-29T01:27:30.971Z,8.88
2019-05-29T01:28:30.959Z,8.82
2019-05-29T01:29:30.893Z,8.80
2019-05-29T01:30:30.812Z,8.77
2019-05-29T01:31:30.760Z,8.80
2019-05-29T01:32:30.715Z,8.82
2019-05-29T01:33:30.654Z,8.73
2019-05-29T01:34:30.643Z,8.72
2019-05-29T01:35:30.551Z,8.78
2019-05-29T01:36:30.489Z,8.87
2019-05-29T01:37:30.437Z,8.78
2019-05-29T01:38:30.390Z,8.80
2019-05-29T01:39:30.329Z,8.81
2019-05-29T01:40:30.301Z,8.78
2019-05-29T01:41:30.223Z,8.84
2019-05-29T01:42:30.172Z,8.82
2019-05-29T01:43:30.117Z,8.77
2019-05-29T01:44:30.065Z,8.78
2019-05-29T01:45:30.030Z,8.78
2019-05-29T01:46:29.959Z,8.67
2019-05-29T01:47:29.899Z,8.72
2019-05-29T01:48:29.852Z,8.67
2019-05-29T01:49:29.792Z,8.62
2019-05-29T01:50:29.750Z,8.62
2019-05-29T01:51:29.686Z,8.60
2019-05-29T01:52:29.635Z,8.67
2019-05-29T01:53:29.578Z,8.64
2019-05-29T01:54:29.524Z,8.67
2019-05-29T01:55:29.499Z,8.62
2019-05-29T01:56:29.416Z,8.59
2019-05-29T01:57:29.365Z,8.55
2019-05-29T01:58:29.311Z,8.60
2019-05-29T01:59:29.258Z,8.57
2019-05-29T02:00:29.232Z,8.64
2019-05-29T02:01:29.149Z,8.62
2019-05-29T02:02:29.099Z,8.64
2019-05-29T02:03:29.047Z,8.55
2019-05-29T02:04:28.994Z,8.64
2019-05-29T02:05:28.958Z,8.67
2019-05-29T02:06:28.886Z,8.66
2019-05-29T02:07:28.826Z,8.69
2019-05-29T02:08:28.771Z,8.62
2019-05-29T02:09:28.723Z,8.62
2019-05-29T02:10:28.689Z,8.64
2019-05-29T02:11:31.974Z,8.60
2019-05-29T02:12:28.556Z,8.64
2019-05-29T02:13:28.508Z,8.62
2019-05-29T02:14:28.453Z,8.60
2019-05-29T02:15:32.517Z,8.62
2019-05-29T02:16:28.340Z,8.70
2019-05-29T02:17:28.298Z,8.57
2019-05-29T02:18:28.244Z,8.59
2019-05-29T02:19:28.272Z,8.57
2019-05-29T02:20:28.155Z,8.41
2019-05-29T02:21:28.452Z,8.47
2019-05-29T02:22:28.024Z,8.34
2019-05-29T02:23:28.299Z,8.59
2019-05-29T02:24:27.921Z,8.52
2019-05-29T02:25:27.882Z,8.57
2019-05-29T02:26:27.810Z,8.57
2019-05-29T02:27:27.802Z,8.44
2019-05-29T02:28:27.700Z,8.62
2019-05-29T02:29:27.648Z,8.57
2019-05-29T02:30:30.458Z,8.51
2019-05-29T02:31:28.838Z,8.39
2019-05-29T02:32:27.931Z,8.45
2019-05-29T02:33:28.369Z,8.45
2019-05-29T02:34:29.440Z,8.30
2019-05-29T02:35:29.240Z,8.33
2019-05-29T02:36:28.652Z,8.33
2019-05-29T02:37:28.925Z,8.16
2019-05-29T02:38:27.647Z,8.11
2019-05-29T02:39:28.782Z,8.12
2019-05-29T02:40:28.481Z,8.05
2019-05-29T02:41:28.437Z,7.98
2019-05-29T02:42:27.167Z,7.93
2019-05-29T02:43:27.700Z,7.87
2019-05-29T02:44:27.558Z,7.86
2019-05-29T02:45:50.683Z,7.87
2019-05-29T02:46:28.603Z,7.93
2019-05-29T02:47:28.054Z,7.88
2019-05-29T02:48:27.596Z,7.88
2019-05-29T02:49:28.142Z,7.88
2019-05-29T02:50:28.755Z,7.96
2019-05-29T02:51:27.967Z,7.80
2019-05-29T02:52:26.482Z,7.78
2019-05-29T02:53:26.362Z,7.73
2019-05-29T02:54:27.288Z,7.69
2019-05-29T02:55:26.883Z,7.76
2019-05-29T02:56:27.036Z,7.70
2019-05-29T02:57:26.928Z,7.57
2019-05-29T02:58:27.737Z,7.50
2019-05-29T02:59:27.410Z,7.44
2019-05-29T03:00:27.543Z,7.39
2019-05-29T03:01:27.618Z,7.36
2019-05-29T03:02:27.768Z,7.29
2019-05-29T03:03:26.809Z,7.29
2019-05-29T03:04:26.212Z,7.14
2019-05-29T03:05:25.983Z,7.16
2019-05-29T03:06:26.260Z,7.11
2019-05-29T03:07:26.353Z,7.11
2019-05-29T03:08:27.133Z,7.13
2019-05-29T03:09:26.618Z,7.17
2019-05-29T03:10:26.663Z,7.08
2019-05-29T03:11:27.068Z,7.20
2019-05-29T03:12:26.946Z,7.14
2019-05-29T03:13:25.586Z,7.21
2019-05-29T03:14:25.386Z,7.07
2019-05-29T03:15:25.592Z,7.11
2019-05-29T03:16:26.686Z,7.08
2019-05-29T03:17:25.691Z,7.02
2019-05-29T03:18:25.783Z,7.10
2019-05-29T03:19:25.951Z,7.05
2019-05-29T03:20:25.953Z,7.00
2019-05-29T03:21:26.106Z,7.05
2019-05-29T03:22:26.292Z,7.02
2019-05-29T03:23:26.431Z,7.03
2019-05-29T03:24:26.486Z,7.00
2019-05-29T03:25:24.636Z,6.99
2019-05-29T03:26:26.916Z,7.00
2019-05-29T03:27:25.700Z,6.96
2019-05-29T03:28:25.698Z,6.88
2019-05-29T03:29:25.784Z,6.89
2019-05-29T03:30:26.987Z,6.93
2019-05-29T03:31:27.085Z,6.93
2019-05-29T03:32:27.114Z,6.93
2019-05-29T03:33:27.178Z,6.99
2019-05-29T03:34:27.327Z,6.95
2019-05-29T03:35:24.095Z,6.92
2019-05-29T03:36:24.052Z,6.81
2019-05-29T03:37:23.963Z,6.93
2019-05-29T03:38:23.922Z,6.89
2019-05-29T03:39:23.859Z,6.80
2019-05-29T03:40:23.801Z,6.91
2019-05-29T03:41:23.798Z,6.92
2019-05-29T03:42:23.699Z,6.77
2019-05-29T03:43:23.641Z,6.80
2019-05-29T03:44:23.592Z,6.85
2019-05-29T03:45:23.527Z,6.91
2019-05-29T03:46:31.679Z,6.93
2019-05-29T03:47:23.421Z,6.91
2019-05-29T03:48:23.372Z,6.96
2019-05-29T03:49:23.315Z,6.95
2019-05-29T03:50:23.257Z,6.95
2019-05-29T03:51:23.259Z,6.92
2019-05-29T03:52:23.148Z,6.88
2019-05-29T03:53:23.093Z,6.81
2019-05-29T03:54:23.041Z,6.77
2019-05-29T03:55:22.989Z,6.96
2019-05-29T03:56:22.955Z,6.80
2019-05-29T03:57:22.879Z,6.93
2019-05-29T03:58:22.828Z,6.83
2019-05-29T03:59:22.769Z,6.89
2019-05-29T04:00:22.716Z,6.83
2019-05-29T04:01:22.681Z,6.81
2019-05-29T04:02:22.625Z,6.78
2019-05-29T04:03:22.538Z,6.74
2019-05-29T04:04:22.499Z,6.71
2019-05-29T04:05:22.438Z,6.81
2019-05-29T04:06:22.433Z,6.81
2019-05-29T04:07:22.344Z,6.80
2019-05-29T04:08:22.276Z,6.92
2019-05-29T04:09:22.244Z,6.93
2019-05-29T04:10:22.197Z,6.88
2019-05-29T04:12:53.685Z,7.05
2019-05-29T04:13:53.626Z,7.16
2019-05-29T04:14:53.570Z,7.20
2019-05-29T04:15:53.521Z,7.23
2019-05-29T04:16:59.573Z,7.17
2019-05-29T04:17:53.408Z,7.28
2019-05-29T04:18:53.359Z,7.42
2019-05-29T04:19:53.293Z,7.39
2019-05-29T04:20:53.239Z,7.46
2019-05-29T04:21:53.214Z,7.52
2019-05-29T04:22:53.136Z,7.60
2019-05-29T04:23:53.080Z,7.73
2019-05-29T04:24:53.023Z,7.78
2019-05-29T04:25:52.977Z,7.91
2019-05-29T04:26:52.945Z,7.98
2019-05-29T04:27:52.873Z,8.06
2019-05-29T04:28:52.826Z,8.13
2019-05-29T04:29:52.755Z,8.18
2019-05-29T04:30:52.701Z,8.23
2019-05-29T04:31:52.669Z,8.38
2019-05-29T04:32:52.600Z,8.38
2019-05-29T04:33:52.539Z,8.45
2019-05-29T04:34:52.490Z,8.57
2019-05-29T04:35:52.436Z,8.59
2019-05-29T04:36:52.400Z,8.69
2019-05-29T04:37:52.325Z,8.69
2019-05-29T04:38:52.282Z,8.80
2019-05-29T04:39:52.224Z,8.90
2019-05-29T04:40:52.161Z,8.95
2019-05-29T04:41:52.135Z,8.99
2019-05-29T04:42:52.054Z,9.08
2019-05-29T04:43:52.011Z,9.14
2019-05-29T04:44:51.950Z,9.21
2019-05-29T04:45:51.898Z,9.37
2019-05-29T04:47:09.472Z,9.44
2019-05-29T04:47:51.795Z,9.51
2019-05-29T04:48:51.735Z,9.51
2019-05-29T04:49:51.700Z,9.51
2019-05-29T04:50:51.631Z,9.58
2019-05-29T04:51:51.602Z,9.51
2019-05-29T04:52:51.526Z,9.59
2019-05-29T04:53:51.470Z,9.58
2019-05-29T04:54:51.414Z,9.70
2019-05-29T04:55:51.366Z,9.85
2019-05-29T04:56:51.365Z,9.91
2019-05-29T04:57:51.256Z,9.98
2019-05-29T04:58:51.214Z,10.13
2019-05-29T04:59:51.153Z,10.10
2019-05-29T05:00:59.262Z,10.22
2019-05-29T05:01:51.071Z,10.40
2019-05-29T05:02:50.999Z,10.49
2019-05-29T05:03:50.971Z,10.59
2019-05-29T05:04:50.937Z,10.59
2019-05-29T05:05:50.864Z,10.59
2019-05-29T05:06:50.818Z,10.56
2019-05-29T05:07:50.735Z,10.54
2019-05-29T05:08:50.696Z,10.54
2019-05-29T05:09:50.657Z,10.56
2019-05-29T05:10:50.576Z,10.70
2019-05-29T05:11:50.556Z,10.71
2019-05-29T05:12:50.527Z,10.74
2019-05-29T05:13:50.426Z,10.67
2019-05-29T05:14:50.379Z,10.77
2019-05-29T05:15:50.324Z,10.85
2019-05-29T05:16:50.276Z,10.92
2019-05-29T05:17:50.245Z,10.93
2019-05-29T05:18:50.173Z,10.97
2019-05-29T05:19:50.115Z,11.03
2019-05-29T05:20:50.064Z,11.08
2019-05-29T05:21:50.015Z,11.17
2019-05-29T05:22:49.983Z,11.20
2019-05-29T05:23:49.913Z,11.33
2019-05-29T05:24:49.858Z,11.47
2019-05-29T05:25:49.804Z,11.62
2019-05-29T05:26:49.761Z,11.66
2019-05-29T05:27:49.734Z,11.74
2019-05-29T05:28:49.684Z,11.69
2019-05-29T05:29:49.607Z,11.66
2019-05-29T05:30:49.556Z,11.79
2019-05-29T05:31:49.501Z,11.99
2019-05-29T05:32:49.474Z,12.00
2019-05-29T05:33:49.408Z,11.91
2019-05-29T05:34:49.351Z,11.71
2019-05-29T05:35:49.293Z,11.50
2019-05-29T05:36:49.240Z,11.48
2019-05-29T05:37:49.224Z,11.38
2019-05-29T05:38:49.145Z,11.43
2019-05-29T05:39:49.095Z,11.47
2019-05-29T05:40:49.043Z,11.65
2019-05-29T05:41:48.990Z,11.71
2019-05-29T05:42:48.964Z,11.90
2019-05-29T05:43:48.887Z,12.10
2019-05-29T05:44:48.838Z,12.20
2019-05-29T05:45:48.786Z,12.36
2019-05-29T05:46:48.752Z,12.55
2019-05-29T05:47:56.804Z,12.76
2019-05-29T05:48:48.639Z,12.91
2019-05-29T05:49:48.584Z,13.06
2019-05-29T05:50:48.537Z,13.16
2019-05-29T05:51:48.485Z,13.35
2019-05-29T05:52:48.459Z,13.47
2019-05-29T05:53:48.383Z,13.38
2019-05-29T05:54:48.341Z,13.52
2019-05-29T05:55:48.292Z,13.49
2019-05-29T05:56:48.235Z,13.57
2019-05-29T05:57:48.209Z,13.64
2019-05-29T05:58:48.130Z,13.63
2019-05-29T05:59:48.082Z,13.75
2019-05-29T06:00:48.035Z,13.67
2019-05-29T06:01:47.980Z,13.77
2019-05-29T06:02:47.953Z,13.83
2019-05-29T06:03:47.880Z,13.89
2019-05-29T06:04:47.833Z,13.93
2019-05-29T06:05:47.778Z,13.97
2019-05-29T06:06:47.743Z,13.95
2019-05-29T06:07:47.703Z,14.10
2019-05-29T06:08:47.634Z,14.14
2019-05-29T06:09:47.580Z,14.26
2019-05-29T06:10:47.537Z,14.29
2019-05-29T06:11:47.487Z,14.44
2019-05-29T06:12:47.454Z,14.32
2019-05-29T06:13:47.383Z,14.14
2019-05-29T06:14:47.332Z,14.08
2019-05-29T06:15:47.281Z,14.01
2019-05-29T06:16:47.230Z,14.03
2019-05-29T06:18:10.149Z,14.11
2019-05-29T06:18:47.135Z,14.14
2019-05-29T06:19:47.085Z,14.26
2019-05-29T06:20:47.027Z,14.44
2019-05-29T06:21:47.021Z,14.50
2019-05-29T06:22:47.140Z,14.55
2019-05-29T06:23:46.885Z,14.51
2019-05-29T06:24:46.840Z,14.50
2019-05-29T06:25:46.784Z,14.66
2019-05-29T06:26:46.737Z,14.77
2019-05-29T06:27:46.684Z,14.82
2019-05-29T06:28:46.665Z,14.96
2019-05-29T06:29:46.585Z,15.03
2019-05-29T06:30:46.544Z,15.18
2019-05-29T06:31:46.486Z,15.18
2019-05-29T06:32:46.439Z,15.27
2019-05-29T06:33:46.411Z,15.09
2019-05-29T06:34:46.340Z,14.82
2019-05-29T06:35:46.289Z,14.61
2019-05-29T06:36:48.244Z,14.66
2019-05-29T06:37:46.191Z,14.50
2019-05-29T06:38:46.169Z,14.59
2019-05-29T06:39:46.096Z,14.50
2019-05-29T06:40:46.047Z,14.56
2019-05-29T06:41:45.992Z,14.62
2019-05-29T06:42:45.949Z,14.59
2019-05-29T06:43:45.918Z,14.68
2019-05-29T06:44:48.536Z,14.84
2019-05-29T06:45:45.795Z,14.85
2019-05-29T06:46:45.748Z,14.85
2019-05-29T06:47:45.704Z,14.85
2019-05-29T06:48:59.007Z,14.88
2019-05-29T06:49:46.294Z,14.99
2019-05-29T06:50:45.558Z,15.00
2019-05-29T06:51:45.504Z,14.97
2019-05-29T06:52:45.454Z,15.00
2019-05-29T06:53:45.440Z,14.93
2019-05-29T06:54:45.365Z,14.93
2019-05-29T06:55:45.307Z,15.06
2019-05-29T06:56:45.259Z,15.15
2019-05-29T06:57:45.202Z,15.25
2019-05-29T06:58:45.186Z,15.25
2019-05-29T06:59:45.116Z,15.32
2019-05-29T07:00:45.061Z,15.30
2019-05-29T07:01:45.015Z,15.28
2019-05-29T07:02:44.960Z,15.32
2019-05-29T07:03:44.932Z,15.39
2019-05-29T07:04:44.866Z,15.32
2019-05-29T07:05:50.681Z,15.32
2019-05-29T07:06:44.865Z,15.32
2019-05-29T07:07:44.709Z,15.44
2019-05-29T07:08:48.120Z,15.44
2019-05-29T07:09:45.152Z,15.48
2019-05-29T07:10:44.663Z,15.43
2019-05-29T07:11:45.519Z,15.44
2019-05-29T07:12:44.585Z,15.39
2019-05-29T07:13:47.656Z,15.44
2019-05-29T07:14:44.535Z,15.42
2019-05-29T07:15:45.743Z,15.52
2019-05-29T07:16:55.124Z,15.52
2019-05-29T07:17:44.514Z,15.50
2019-05-29T07:19:20.447Z,15.61
2019-05-29T07:19:53.954Z,15.61
2019-05-29T07:20:44.875Z,15.75
2019-05-29T07:21:45.031Z,15.75
2019-05-29T07:22:45.065Z,15.76
2019-05-29T07:23:45.186Z,15.82
2019-05-29T07:24:44.924Z,15.60
2019-05-29T07:25:45.480Z,15.54
2019-05-29T07:26:45.190Z,15.48
2019-05-29T07:27:44.974Z,15.32
2019-05-29T07:29:02.068Z,15.40
2019-05-29T07:29:43.633Z,15.50
2019-05-29T07:30:49.826Z,15.35
2019-05-29T07:31:43.535Z,15.46
2019-05-29T07:32:50.949Z,15.32
2019-05-29T07:33:43.458Z,15.44
2019-05-29T07:34:57.902Z,15.48
2019-05-29T07:35:43.631Z,15.25
2019-05-29T07:36:44.022Z,15.50
2019-05-29T07:37:43.855Z,15.57
2019-05-29T07:38:45.897Z,15.68
2019-05-29T07:39:43.590Z,15.52
2019-05-29T07:40:45.112Z,15.46
2019-05-29T07:41:43.684Z,15.27
2019-05-29T07:42:49.783Z,15.30
2019-05-29T07:43:43.843Z,15.32
2019-05-29T07:44:44.022Z,15.22
2019-05-29T07:45:43.964Z,15.28
2019-05-29T07:46:45.138Z,15.48
2019-05-29T07:47:42.891Z,15.48
2019-05-29T07:48:42.769Z,15.52
2019-05-29T07:49:44.823Z,15.55
2019-05-29T07:50:42.599Z,15.76
2019-05-29T07:51:43.333Z,15.92
2019-05-29T07:52:43.337Z,15.98
2019-05-29T07:53:42.457Z,16.16
2019-05-29T07:54:43.640Z,16.38
2019-05-29T07:55:42.662Z,16.57
2019-05-29T07:56:42.523Z,16.53
2019-05-29T07:57:42.803Z,16.71
2019-05-29T07:58:49.068Z,16.80
2019-05-29T07:59:42.669Z,16.86
2019-05-29T08:01:06.927Z,16.44
2019-05-29T08:01:42.799Z,16.02
2019-05-29T08:02:43.214Z,16.01
2019-05-29T08:03:43.287Z,16.10
2019-05-29T08:04:42.947Z,16.09
2019-05-29T08:05:45.998Z,16.20
2019-05-29T08:06:48.340Z,16.17
2019-05-29T08:07:41.770Z,16.06
2019-05-29T08:08:41.726Z,16.10
2019-05-29T08:09:41.699Z,15.98
2019-05-29T08:10:41.826Z,15.83
2019-05-29T08:11:41.600Z,15.73
2019-05-29T08:12:46.372Z,15.54
2019-05-29T08:13:41.579Z,15.57
2019-05-29T08:14:41.791Z,15.40
2019-05-29T08:15:55.291Z,15.18
2019-05-29T08:16:41.910Z,15.14
2019-05-29T08:17:42.016Z,15.07
2019-05-29T08:18:45.381Z,15.09
2019-05-29T08:19:58.260Z,14.89
2019-05-29T08:20:41.861Z,14.77
2019-05-29T08:21:42.570Z,14.81
2019-05-29T08:22:42.269Z,14.84
2019-05-29T08:23:42.185Z,14.97
2019-05-29T08:24:42.464Z,15.04
2019-05-29T08:25:41.409Z,15.19
2019-05-29T08:26:40.849Z,15.25
2019-05-29T08:27:40.798Z,15.39
2019-05-29T08:28:40.755Z,15.60
2019-05-29T08:29:40.736Z,15.58
2019-05-29T08:30:41.224Z,15.64
2019-05-29T08:31:40.705Z,15.70
2019-05-29T08:32:40.841Z,15.75
2019-05-29T08:33:40.808Z,15.69
2019-05-29T08:34:40.887Z,15.72
2019-05-29T08:35:41.535Z,15.87
2019-05-29T08:36:42.096Z,15.85
2019-05-29T08:37:40.786Z,15.88
2019-05-29T08:38:42.556Z,15.91
2019-05-29T08:39:41.180Z,16.00
2019-05-29T08:40:41.024Z,16.10
2019-05-29T08:41:40.127Z,16.08
2019-05-29T08:42:40.969Z,16.17
2019-05-29T08:43:40.019Z,16.25
2019-05-29T08:44:41.229Z,16.36
2019-05-29T08:45:39.925Z,16.49
2019-05-29T08:46:39.888Z,16.59
2019-05-29T08:47:39.827Z,16.89
2019-05-29T08:48:39.775Z,16.86
2019-05-29T08:49:39.752Z,16.91
2019-05-29T08:50:39.676Z,17.05
2019-05-29T08:51:39.629Z,17.11
2019-05-29T08:52:39.582Z,17.19
2019-05-29T08:53:39.526Z,17.19
2019-05-29T08:54:39.506Z,17.11
2019-05-29T08:55:39.436Z,17.17
2019-05-29T08:56:39.391Z,17.27
2019-05-29T08:57:39.337Z,17.19
2019-05-29T08:58:39.738Z,17.20
2019-05-29T08:59:39.265Z,17.27
2019-05-29T09:00:39.200Z,17.20
2019-05-29T09:01:39.151Z,17.17
2019-05-29T09:02:39.103Z,17.09
2019-05-29T09:03:39.063Z,17.04
2019-05-29T09:04:39.031Z,17.06
2019-05-29T09:05:38.949Z,17.06
2019-05-29T09:06:38.907Z,17.01
2019-05-29T09:07:38.860Z,17.01
2019-05-29T09:08:38.813Z,16.98
2019-05-29T09:09:38.797Z,16.90
2019-05-29T09:10:38.715Z,16.99
2019-05-29T09:11:38.670Z,16.99
2019-05-29T09:12:38.643Z,17.01
2019-05-29T09:13:38.571Z,17.14
2019-05-29T09:14:38.552Z,17.23
2019-05-29T09:15:38.500Z,17.30
2019-05-29T09:16:38.425Z,17.33
2019-05-29T09:17:38.377Z,17.30
2019-05-29T09:18:38.345Z,17.14
2019-05-29T09:19:38.291Z,17.04
2019-05-29T09:21:00.698Z,16.80
2019-05-29T09:21:38.183Z,16.64
2019-05-29T09:22:38.139Z,16.61
2019-05-29T09:23:38.091Z,16.54
2019-05-29T09:24:38.042Z,16.65
2019-05-29T09:25:38.014Z,16.79
2019-05-29T09:26:37.943Z,16.98
2019-05-29T09:27:37.905Z,16.93
2019-05-29T09:28:37.849Z,16.99
2019-05-29T09:29:37.802Z,16.93
2019-05-29T09:30:37.777Z,16.96
2019-05-29T09:31:37.706Z,16.86
2019-05-29T09:32:52.951Z,16.98
2019-05-29T09:33:37.608Z,16.99
2019-05-29T09:34:37.564Z,16.98
2019-05-29T09:35:37.532Z,16.89
2019-05-29T09:36:37.469Z,16.76
2019-05-29T09:37:37.419Z,16.69
2019-05-29T09:38:37.370Z,16.69
2019-05-29T09:39:37.319Z,16.75
2019-05-29T09:40:37.296Z,16.75
2019-05-29T09:41:37.235Z,16.94
2019-05-29T09:42:37.181Z,16.96
2019-05-29T09:43:37.138Z,17.12
2019-05-29T09:44:39.243Z,17.08
2019-05-29T09:45:37.059Z,17.17
2019-05-29T09:46:36.989Z,17.12
2019-05-29T09:47:36.935Z,16.91
2019-05-29T09:48:49.313Z,16.86
2019-05-29T09:49:36.841Z,16.59
2019-05-29T09:50:49.363Z,16.32
2019-05-29T09:51:36.742Z,16.13
2019-05-29T09:52:36.719Z,16.06
2019-05-29T09:53:36.686Z,15.98
2019-05-29T09:54:36.716Z,16.02
2019-05-29T09:55:36.597Z,16.13
2019-05-29T09:56:36.509Z,16.21
2019-05-29T09:57:36.455Z,16.28
2019-05-29T09:58:36.408Z,16.17
2019-05-29T09:59:36.359Z,16.06
2019-05-29T10:00:36.337Z,16.08
2019-05-29T10:01:36.280Z,16.20
2019-05-29T10:02:36.216Z,16.41
2019-05-29T10:03:36.167Z,16.57
2019-05-29T10:04:36.177Z,16.76
2019-05-29T10:05:36.097Z,16.72
2019-05-29T10:06:36.035Z,16.76
2019-05-29T10:07:36.343Z,16.71
2019-05-29T10:08:35.997Z,16.64
2019-05-29T10:09:35.879Z,16.69
2019-05-29T10:10:35.861Z,16.79
2019-05-29T10:11:35.781Z,16.74
2019-05-29T10:12:35.735Z,16.59
2019-05-29T10:13:35.694Z,16.43
2019-05-29T10:14:35.637Z,16.49
2019-05-29T10:15:35.613Z,16.53
2019-05-29T10:16:35.552Z,16.56
2019-05-29T10:17:35.491Z,16.72
2019-05-29T10:18:35.443Z,16.87
2019-05-29T10:19:35.408Z,16.86
2019-05-29T10:20:35.389Z,17.08
2019-05-29T10:21:40.740Z,17.02
2019-05-29T10:22:35.250Z,17.01
2019-05-29T10:23:35.209Z,17.12
2019-05-29T10:24:35.155Z,17.14
2019-05-29T10:25:35.150Z,17.09
2019-05-29T10:26:35.085Z,17.19
2019-05-29T10:27:35.020Z,17.16
2019-05-29T10:28:50.412Z,17.33
2019-05-29T10:29:34.914Z,17.33
2019-05-29T10:30:34.885Z,17.38
2019-05-29T10:31:34.846Z,17.44
2019-05-29T10:32:34.770Z,17.63
2019-05-29T10:33:34.720Z,17.78
2019-05-29T10:34:34.677Z,17.89
2019-05-29T10:35:34.633Z,17.93
2019-05-29T10:36:34.615Z,18.07
2019-05-29T10:37:34.531Z,18.03
2019-05-29T10:38:34.483Z,17.93
2019-05-29T10:39:34.437Z,17.88
2019-05-29T10:40:34.392Z,17.89
2019-05-29T10:41:34.370Z,17.97
2019-05-29T10:42:34.293Z,18.04
2019-05-29T10:43:35.058Z,18.09
2019-05-29T10:44:34.199Z,18.18
2019-05-29T10:45:34.174Z,18.15
2019-05-29T10:46:34.129Z,18.07
2019-05-29T10:47:34.059Z,17.82
2019-05-29T10:48:34.035Z,17.57
2019-05-29T10:49:33.953Z,17.56
2019-05-29T10:50:33.916Z,17.59
2019-05-29T10:51:33.888Z,17.59
2019-05-29T10:52:33.816Z,17.68
2019-05-29T10:53:33.773Z,17.79
2019-05-29T10:54:33.722Z,17.83
2019-05-29T10:55:33.672Z,17.83
2019-05-29T10:56:33.652Z,17.82
2019-05-29T10:57:33.577Z,17.78
2019-05-29T10:58:47.854Z,17.83
2019-05-29T10:59:33.484Z,17.79
2019-05-29T11:00:33.509Z,17.59
2019-05-29T11:01:33.416Z,17.53
2019-05-29T11:02:33.343Z,17.57
2019-05-29T11:03:33.303Z,17.57
2019-05-29T11:04:33.259Z,17.59
2019-05-29T11:05:33.211Z,17.68
2019-05-29T11:06:33.172Z,17.64
2019-05-29T11:07:33.105Z,17.64
2019-05-29T11:08:33.057Z,17.64
2019-05-29T11:09:44.079Z,17.68
2019-05-29T11:10:32.958Z,17.67
2019-05-29T11:11:32.937Z,17.67
2019-05-29T11:12:32.863Z,17.64
2019-05-29T11:13:32.872Z,17.63
2019-05-29T11:14:32.762Z,17.60
2019-05-29T11:15:32.724Z,17.65
2019-05-29T11:16:32.691Z,17.70
2019-05-29T11:17:32.623Z,17.64
2019-05-29T11:18:32.579Z,17.54
2019-05-29T11:19:32.529Z,17.48
2019-05-29T11:20:32.481Z,17.41
2019-05-29T11:21:32.469Z,17.37
2019-05-29T11:22:32.378Z,17.39
2019-05-29T11:23:32.334Z,17.39
2019-05-29T11:24:32.321Z,17.48
2019-05-29T11:25:32.237Z,17.49
2019-05-29T11:26:32.216Z,17.49
2019-05-29T11:27:32.143Z,17.39
2019-05-29T11:28:32.096Z,17.60
2019-05-29T11:29:32.047Z,17.59
2019-05-29T11:30:32.006Z,17.53
2019-05-29T11:31:31.973Z,17.65
2019-05-29T11:32:31.911Z,17.59
2019-05-29T11:33:31.853Z,17.59
2019-05-29T11:34:31.806Z,17.59
2019-05-29T11:35:31.755Z,17.60
2019-05-29T11:36:31.750Z,17.64
2019-05-29T11:37:31.661Z,17.76
2019-05-29T11:38:31.612Z,17.78
2019-05-29T11:39:31.565Z,17.94
2019-05-29T11:40:31.586Z,17.97
2019-05-29T11:41:31.494Z,18.10
2019-05-29T11:42:31.419Z,17.95
2019-05-29T11:43:31.381Z,18.03
2019-05-29T11:44:31.329Z,18.05
2019-05-29T11:45:35.212Z,18.00
2019-05-29T11:46:31.257Z,18.01
2019-05-29T11:47:31.184Z,18.16
2019-05-29T11:48:31.132Z,18.19
2019-05-29T11:49:31.107Z,18.15
2019-05-29T11:50:31.041Z,18.12
2019-05-29T11:51:31.022Z,18.07
2019-05-29T11:52:42.565Z,18.20
2019-05-29T11:53:30.977Z,18.25
2019-05-29T11:54:30.852Z,18.22
2019-05-29T11:55:30.934Z,18.22
2019-05-29T11:56:30.774Z,18.03
2019-05-29T11:57:30.745Z,17.85
2019-05-29T11:58:31.776Z,17.78
2019-05-29T11:59:30.609Z,17.64
2019-05-29T12:00:30.568Z,17.54
2019-05-29T12:01:48.576Z,17.56
2019-05-29T12:02:30.489Z,17.64
2019-05-29T12:03:30.426Z,17.76
2019-05-29T12:04:30.373Z,17.86
2019-05-29T12:05:30.326Z,17.85
2019-05-29T12:06:30.277Z,17.95
2019-05-29T12:07:30.251Z,17.95
2019-05-29T12:08:30.179Z,18.05
2019-05-29T12:09:33.225Z,18.03
2019-05-29T12:10:30.091Z,17.86
2019-05-29T12:11:30.035Z,17.68
2019-05-29T12:12:30.011Z,17.56
2019-05-29T12:13:29.941Z,17.48
2019-05-29T12:14:29.903Z,17.39
2019-05-29T12:15:29.845Z,17.37
2019-05-29T12:16:29.796Z,17.35
2019-05-29T12:17:29.774Z,17.30
2019-05-29T12:18:29.696Z,17.39
2019-05-29T12:19:29.657Z,17.33
2019-05-29T12:20:29.605Z,17.38
2019-05-29T12:21:29.558Z,17.29
2019-05-29T12:22:29.527Z,17.35
2019-05-29T12:23:29.472Z,17.31
2019-05-29T12:24:29.413Z,17.29
2019-05-29T12:25:29.371Z,17.35
2019-05-29T12:26:29.314Z,17.29
2019-05-29T12:27:29.291Z,17.38
2019-05-29T12:28:29.242Z,17.41
2019-05-29T12:29:29.167Z,17.41
2019-05-29T12:30:29.121Z,17.45
2019-05-29T12:31:29.078Z,17.59
2019-05-29T12:32:29.049Z,17.64
2019-05-29T12:33:28.975Z,17.76
2019-05-29T12:34:28.928Z,17.73
2019-05-29T12:35:28.883Z,17.78
2019-05-29T12:36:28.829Z,17.78
2019-05-29T12:37:28.810Z,17.82
2019-05-29T12:38:28.741Z,17.95
2019-05-29T12:39:28.683Z,17.98
2019-05-29T12:40:28.638Z,17.94
2019-05-29T12:41:28.592Z,17.83
2019-05-29T12:42:28.571Z,17.93
2019-05-29T12:43:28.529Z,17.78
2019-05-29T12:44:28.446Z,17.73
2019-05-29T12:45:28.398Z,17.79
2019-05-29T12:46:28.350Z,17.79
2019-05-29T12:47:28.330Z,17.76
2019-05-29T12:48:28.252Z,17.82
2019-05-29T12:49:28.205Z,17.91
2019-05-29T12:50:28.166Z,17.85
2019-05-29T12:51:28.142Z,18.00
2019-05-29T12:52:28.087Z,18.01
2019-05-29T12:53:30.943Z,18.04
2019-05-29T12:54:27.968Z,18.03
2019-05-29T12:55:27.924Z,18.04
2019-05-29T12:56:27.865Z,18.15
2019-05-29T12:57:27.846Z,18.15
2019-05-29T12:58:27.767Z,18.10
2019-05-29T12:59:27.722Z,18.18
2019-05-29T13:00:27.681Z,18.23
2019-05-29T13:01:27.628Z,18.30
2019-05-29T13:02:27.607Z,18.33
2019-05-29T13:03:27.546Z,18.35